Fortune, Canada
Current Conditions -  °F | °C
As of 6:00 AM on Friday 19 Dec 2014 (Local Time) from LFVP Reporting Station
Broken Clouds Broken Clouds  
Wind Chill: 31°   Ceiling: 600
Heat Index: 41°   Visibility: 5mi
Dew Point: 41°   Wind: 22mph
Humidity: 100%   Direction: 220°SW
Pressure: 29.26"   Gusts: NA
Location:  47.07°N, 55.87°W
Report Text: LFVP 190900Z 22019KT 8000 BKN006 05/05 Q0991 RERA NOSIG
Loading
Personal Weather Stations






























Interactive Weather Map New forecast layout! Learn more

10-Day Weather Forecast

Advertisements
Track Severe Weather on mobile